Time,TemperatureF,DewpointF,PressureIn,WindDirection,WindDirectionDegrees,WindSpeedMPH,WindSpeedGustMPH,Humidity,HourlyPrecipIn,Conditions,Clouds,dailyrainin,SoftwareType,DateUTC
2013-04-01 00:00:00,55.0,53.9,29.82,ESE,120,0.0,0.0,96,0.00,RA,,0.00,WeatherDisplay:10.37,2013-04-01 04:00:00,
2013-04-01 00:01:00,54.9,53.8,29.82,ESE,120,0.0,0.0,96,0.00,RA,,0.00,WeatherDisplay:10.37,2013-04-01 04:01:00,
2013-04-01 00:06:00,54.9,53.8,29.82,ESE,120,0.0,0.0,96,0.00,RA,,0.00,WeatherDisplay:10.37,2013-04-01 04:06:00,
2013-04-01 00:11:00,54.8,54.0,29.82,ESE,120,0.0,0.0,97,0.00,CLR,,0.00,WeatherDisplay:10.37,2013-04-01 04:11:00,
2013-04-01 00:12:00,54.8,54.0,29.82,ESE,120,0.0,0.0,97,0.00,CLR,,0.00,WeatherDisplay:10.37,2013-04-01 04:12:00,
2013-04-01 00:17:00,54.7,53.6,29.82,ESE,120,0.0,0.0,96,0.00,CLR,,0.00,WeatherDisplay:10.37,2013-04-01 04:17:00,
2013-04-01 00:22:00,54.7,53.9,29.82,ESE,117,0.0,0.0,97,0.00,CLR,,0.00,WeatherDisplay:10.37,2013-04-01 04:22:00,
2013-04-01 00:27:00,54.7,53.9,29.82,ESE,117,0.0,0.0,97,0.00,CLR,,0.00,WeatherDisplay:10.37,2013-04-01 04:27:00,
2013-04-01 00:32:00,54.6,53.8,29.82,ESE,117,0.0,0.0,97,0.00,CLR,,0.00,WeatherDisplay:10.37,2013-04-01 04:32:00,
2013-04-01 00:37:00,54.6,53.8,29.82,ESE,117,0.0,0.0,97,0.00,CLR,,0.00,WeatherDisplay:10.37,2013-04-01 04:37:00,
2013-04-01 00:42:00,54.5,53.7,29.82,ESE,117,0.0,0.0,97,0.00,CLR,,0.00,WeatherDisplay:10.37,2013-04-01 04:42:00,
2013-04-01 00:47:00,54.3,53.5,29.82,ESE,117,0.0,0.0,97,0.00,CLR,,0.00,WeatherDisplay:10.37,2013-04-01 04:47:00,
2013-04-01 00:52:00,54.2,53.4,29.82,ESE,117,0.0,0.0,97,0.00,CLR,,0.00,WeatherDisplay:10.37,2013-04-01 04:52:00,
2013-04-01 00:57:00,54.2,53.4,29.82,ESE,117,0.0,0.0,97,0.00,CLR,,0.00,WeatherDisplay:10.37,2013-04-01 04:57:00,
2013-04-01 01:02:00,54.1,53.3,29.82,ESE,117,0.0,0.0,97,0.00,CLR,,0.00,WeatherDisplay:10.37,2013-04-01 05:02:00,
2013-04-01 01:06:00,54.2,53.4,29.82,ESE,117,0.0,0.0,97,0.00,CLR,,0.00,WeatherDisplay:10.37,2013-04-01 05:06:00,
2013-04-01 01:11:00,54.2,53.4,29.83,ESE,117,0.0,0.0,97,0.00,CLR,,0.00,WeatherDisplay:10.37,2013-04-01 05:11:00,
2013-04-01 01:16:00,54.4,53.6,29.83,ESE,117,0.0,0.0,97,0.00,CLR,,0.00,WeatherDisplay:10.37,2013-04-01 05:16:00,
2013-04-01 01:21:00,54.5,53.7,29.83,ESE,117,0.0,0.0,97,0.00,CLR,,0.00,WeatherDisplay:10.37,2013-04-01 05:21:00,
2013-04-01 01:26:00,54.5,53.7,29.82,ESE,117,0.0,0.0,97,0.00,CLR,,0.00,WeatherDisplay:10.37,2013-04-01 05:26:00,
2013-04-01 01:31:00,54.4,53.6,29.82,ESE,117,0.0,0.0,97,0.00,CLR,,0.00,WeatherDisplay:10.37,2013-04-01 05:31:00,
2013-04-01 01:36:00,54.6,53.8,29.82,ESE,117,0.0,0.0,97,0.00,CLR,,0.00,WeatherDisplay:10.37,2013-04-01 05:36:00,
2013-04-01 01:41:00,54.5,53.7,29.82,ESE,117,0.0,0.0,97,0.00,CLR,,0.00,WeatherDisplay:10.37,2013-04-01 05:41:00,
2013-04-01 01:46:00,54.5,53.7,29.82,ESE,120,0.0,0.0,97,0.00,CLR,,0.00,WeatherDisplay:10.37,2013-04-01 05:46:00,
2013-04-01 01:51:00,54.5,53.7,29.82,ESE,120,0.0,0.0,97,0.00,CLR,,0.00,WeatherDisplay:10.37,2013-04-01 05:51:00,
2013-04-01 01:56:00,54.5,53.7,29.82,ESE,120,0.0,0.0,97,0.00,CLR,,0.00,WeatherDisplay:10.37,2013-04-01 05:56:00,
2013-04-01 02:01:00,54.5,53.7,29.82,ESE,120,0.0,0.0,97,0.00,CLR,,0.00,WeatherDisplay:10.37,2013-04-01 06:01:00,
2013-04-01 02:06:00,54.5,53.7,29.82,ESE,120,0.0,0.0,97,0.00,CLR,,0.00,WeatherDisplay:10.37,2013-04-01 06:06:00,
2013-04-01 02:11:00,54.4,53.6,29.82,ESE,120,0.0,0.0,97,0.00,CLR,,0.00,WeatherDisplay:10.37,2013-04-01 06:11:00,
2013-04-01 02:16:00,54.4,53.6,29.82,ESE,120,0.0,0.0,97,0.00,CLR,,0.00,WeatherDisplay:10.37,2013-04-01 06:16:00,
2013-04-01 02:21:00,54.4,53.6,29.82,ESE,120,0.0,0.0,97,0.00,CLR,,0.00,WeatherDisplay:10.37,2013-04-01 06:21:00,
2013-04-01 02:26:00,54.4,53.6,29.82,ESE,120,0.0,0.0,97,0.00,CLR,,0.00,WeatherDisplay:10.37,2013-04-01 06:26:00,
2013-04-01 02:32:00,54.5,53.7,29.82,ESE,120,0.0,0.0,97,0.00,CLR,,0.00,WeatherDisplay:10.37,2013-04-01 06:32:00,
2013-04-01 02:37:00,54.5,53.7,29.83,ESE,120,0.0,0.0,97,0.00,CLR,,0.00,WeatherDisplay:10.37,2013-04-01 06:37:00,
2013-04-01 02:42:00,54.5,53.7,29.82,ESE,120,0.0,0.0,97,0.00,CLR,,0.00,WeatherDisplay:10.37,2013-04-01 06:42:00,
2013-04-01 02:47:00,54.6,53.8,29.82,ESE,120,0.0,0.0,97,0.00,CLR,,0.00,WeatherDisplay:10.37,2013-04-01 06:47:00,
2013-04-01 02:52:00,54.7,53.9,29.82,ESE,119,0.0,0.0,97,0.00,CLR,,0.00,WeatherDisplay:10.37,2013-04-01 06:52:00,
2013-04-01 02:57:00,54.8,54.0,29.82,ESE,118,0.0,0.0,97,0.01,RA,,0.01,WeatherDisplay:10.37,2013-04-01 06:57:00,
2013-04-01 03:02:00,54.8,54.0,29.82,ESE,119,0.0,0.0,97,0.01,RA,,0.01,WeatherDisplay:10.37,2013-04-01 07:02:00,
2013-04-01 03:07:00,54.9,54.1,29.82,ESE,119,0.0,0.0,97,0.01,,,0.01,WeatherDisplay:10.37,2013-04-01 07:07:00,
2013-04-01 03:12:00,54.9,54.1,29.81,ESE,119,0.0,0.0,97,0.01,CLR,,0.01,WeatherDisplay:10.37,2013-04-01 07:12:00,
2013-04-01 03:17:00,54.9,54.1,29.81,ESE,118,0.0,0.0,97,0.01,CLR,,0.01,WeatherDisplay:10.37,2013-04-01 07:17:00,
2013-04-01 03:22:00,55.0,54.2,29.81,ESE,119,0.0,0.0,97,0.01,CLR,,0.01,WeatherDisplay:10.37,2013-04-01 07:22:00,
2013-04-01 03:27:00,55.0,54.2,29.81,ESE,121,0.0,0.0,97,0.01,CLR,,0.01,WeatherDisplay:10.37,2013-04-01 07:27:00,
2013-04-01 03:32:00,55.0,54.2,29.81,ESE,122,0.0,0.0,97,0.01,CLR,,0.01,WeatherDisplay:10.37,2013-04-01 07:32:00,
2013-04-01 03:37:00,54.9,54.1,29.81,ESE,121,0.0,0.0,97,0.01,CLR,,0.01,WeatherDisplay:10.37,2013-04-01 07:37:00,
2013-04-01 03:42:00,55.0,54.2,29.80,ESE,120,0.0,0.0,97,0.01,CLR,,0.01,WeatherDisplay:10.37,2013-04-01 07:42:00,
2013-04-01 03:47:00,55.0,54.2,29.80,ESE,120,0.0,0.0,97,0.01,CLR,,0.01,WeatherDisplay:10.37,2013-04-01 07:47:00,
2013-04-01 03:52:00,55.0,54.2,29.80,ESE,120,0.0,0.0,97,0.01,CLR,,0.01,WeatherDisplay:10.37,2013-04-01 07:52:00,
2013-04-01 03:57:00,55.0,54.2,29.80,ESE,120,0.0,0.0,97,0.00,CLR,,0.01,WeatherDisplay:10.37,2013-04-01 07:57:00,
2013-04-01 04:02:00,55.0,54.2,29.80,SSE,165,0.0,0.0,97,0.00,CLR,,0.01,WeatherDisplay:10.37,2013-04-01 08:02:00,
2013-04-01 04:07:00,55.0,54.2,29.80,SSE,165,0.0,0.0,97,0.00,CLR,,0.01,WeatherDisplay:10.37,2013-04-01 08:07:00,
2013-04-01 04:12:00,55.0,54.2,29.80,SSE,165,0.0,0.0,97,0.00,CLR,,0.01,WeatherDisplay:10.37,2013-04-01 08:12:00,
2013-04-01 04:17:00,55.1,54.3,29.80,SSE,165,0.0,0.0,97,0.00,CLR,,0.01,WeatherDisplay:10.37,2013-04-01 08:17:00,
2013-04-01 04:22:00,55.1,54.3,29.80,SSE,165,0.0,0.0,97,0.00,CLR,,0.01,WeatherDisplay:10.37,2013-04-01 08:22:00,
2013-04-01 04:27:00,55.1,54.3,29.80,SSE,165,0.0,0.0,97,0.00,CLR,,0.01,WeatherDisplay:10.37,2013-04-01 08:27:00,
2013-04-01 04:32:00,55.0,54.2,29.80,SSE,165,0.0,0.0,97,0.00,CLR,,0.01,WeatherDisplay:10.37,2013-04-01 08:32:00,
2013-04-01 04:37:00,55.0,54.2,29.81,SSE,165,0.0,0.0,97,0.00,CLR,,0.01,WeatherDisplay:10.37,2013-04-01 08:37:00,
2013-04-01 04:42:00,55.0,54.2,29.81,SSE,165,0.0,0.0,97,0.00,CLR,,0.01,WeatherDisplay:10.37,2013-04-01 08:42:00,
2013-04-01 04:47:00,55.0,54.2,29.81,SSE,165,0.0,0.0,97,0.00,CLR,,0.01,WeatherDisplay:10.37,2013-04-01 08:47:00,
2013-04-01 04:52:00,55.0,54.2,29.81,SSE,165,0.0,0.0,97,0.00,CLR,,0.01,WeatherDisplay:10.37,2013-04-01 08:52:00,
2013-04-01 04:57:00,55.1,54.3,29.81,West,281,0.0,0.0,97,0.00,CLR,,0.01,WeatherDisplay:10.37,2013-04-01 08:57:00,
2013-04-01 05:02:00,55.0,54.2,29.81,West,281,0.0,0.0,97,0.00,CLR,,0.01,WeatherDisplay:10.37,2013-04-01 09:02:00,
2013-04-01 05:07:00,55.1,54.3,29.81,WSW,246,2.3,2.3,97,0.00,CLR,,0.01,WeatherDisplay:10.37,2013-04-01 09:07:00,
2013-04-01 05:12:00,55.1,54.3,29.81,WSW,246,0.0,0.0,97,0.00,CLR,,0.01,WeatherDisplay:10.37,2013-04-01 09:12:00,
2013-04-01 05:17:00,55.0,54.2,29.81,WSW,246,0.0,0.0,97,0.00,CLR,,0.01,WeatherDisplay:10.37,2013-04-01 09:17:00,
2013-04-01 05:22:00,55.0,54.2,29.81,WSW,246,0.0,0.0,97,0.00,CLR,,0.01,WeatherDisplay:10.37,2013-04-01 09:22:00,
2013-04-01 05:27:00,55.0,54.2,29.81,WSW,246,0.0,0.0,97,0.00,CLR,,0.01,WeatherDisplay:10.37,2013-04-01 09:27:00,
2013-04-01 05:32:00,54.9,54.1,29.81,WSW,246,0.0,0.0,97,0.00,CLR,,0.01,WeatherDisplay:10.37,2013-04-01 09:32:00,
2013-04-01 05:37:00,54.9,54.1,29.81,WSW,246,0.0,0.0,97,0.00,CLR,,0.01,WeatherDisplay:10.37,2013-04-01 09:37:00,
2013-04-01 05:42:00,54.9,54.1,29.82,WSW,245,0.0,0.0,97,0.00,CLR,,0.01,WeatherDisplay:10.37,2013-04-01 09:42:00,
2013-04-01 05:47:00,54.9,54.1,29.82,WSW,245,0.0,0.0,97,0.01,RA,,0.02,WeatherDisplay:10.37,2013-04-01 09:47:00,
2013-04-01 05:52:00,54.9,54.1,29.81,WSW,246,0.0,0.0,97,0.01,RA,,0.02,WeatherDisplay:10.37,2013-04-01 09:52:00,
2013-04-01 05:57:00,54.9,54.1,29.82,West,263,2.3,2.3,97,0.01,,,0.02,WeatherDisplay:10.37,2013-04-01 09:57:00,
2013-04-01 06:02:00,54.9,54.1,29.82,West,262,0.0,0.0,97,0.01,CLR,,0.02,WeatherDisplay:10.37,2013-04-01 10:02:00,
2013-04-01 06:07:00,54.8,54.0,29.82,West,262,0.0,0.0,97,0.01,CLR,,0.02,WeatherDisplay:10.37,2013-04-01 10:07:00,
2013-04-01 06:12:00,54.9,54.1,29.82,West,262,0.0,0.0,97,0.01,CLR,,0.02,WeatherDisplay:10.37,2013-04-01 10:12:00,
2013-04-01 06:17:00,54.8,54.0,29.82,West,262,0.0,0.0,97,0.01,CLR,,0.02,WeatherDisplay:10.37,2013-04-01 10:17:00,
2013-04-01 06:22:00,54.8,54.0,29.82,West,262,0.0,0.0,97,0.01,CLR,,0.02,WeatherDisplay:10.37,2013-04-01 10:22:00,
2013-04-01 06:27:00,54.8,54.0,29.82,West,262,0.0,0.0,97,0.01,CLR,,0.02,WeatherDisplay:10.37,2013-04-01 10:27:00,
2013-04-01 06:32:00,54.7,53.9,29.83,West,262,0.0,0.0,97,0.01,CLR,,0.02,WeatherDisplay:10.37,2013-04-01 10:32:00,
2013-04-01 06:37:00,54.7,53.9,29.83,West,262,0.0,0.0,97,0.01,CLR,,0.02,WeatherDisplay:10.37,2013-04-01 10:37:00,
2013-04-01 06:42:00,54.6,53.8,29.83,West,262,0.0,0.0,97,0.01,CLR,,0.02,WeatherDisplay:10.37,2013-04-01 10:42:00,
2013-04-01 06:47:00,54.6,53.8,29.83,West,262,0.0,0.0,97,0.00,CLR,,0.02,WeatherDisplay:10.37,2013-04-01 10:47:00,
2013-04-01 06:52:00,54.6,53.8,29.83,West,262,0.0,0.0,97,0.00,CLR,,0.02,WeatherDisplay:10.37,2013-04-01 10:52:00,
2013-04-01 06:57:00,54.6,54.0,29.83,SW,216,0.0,0.0,98,0.00,CLR,,0.02,WeatherDisplay:10.37,2013-04-01 10:57:00,
2013-04-01 07:02:00,54.6,54.0,29.84,SW,216,0.0,0.0,98,0.00,CLR,,0.02,WeatherDisplay:10.37,2013-04-01 11:02:00,
2013-04-01 07:07:00,54.6,54.0,29.84,SW,217,0.0,0.0,98,0.00,CLR,,0.02,WeatherDisplay:10.37,2013-04-01 11:07:00,
2013-04-01 07:12:00,54.5,53.7,29.84,SW,217,0.0,0.0,97,0.00,CLR,,0.02,WeatherDisplay:10.37,2013-04-01 11:12:00,
2013-04-01 07:17:00,54.5,53.9,29.84,SW,217,0.0,0.0,98,0.00,CLR,,0.02,WeatherDisplay:10.37,2013-04-01 11:17:00,
2013-04-01 07:22:00,54.5,53.9,29.84,SW,217,0.0,0.0,98,0.00,CLR,,0.02,WeatherDisplay:10.37,2013-04-01 11:22:00,
2013-04-01 07:27:00,54.5,53.9,29.85,SW,217,0.0,0.0,98,0.00,CLR,,0.02,WeatherDisplay:10.37,2013-04-01 11:27:00,
2013-04-01 07:32:00,54.4,53.8,29.85,SW,217,0.0,0.0,98,0.00,CLR,,0.02,WeatherDisplay:10.37,2013-04-01 11:32:00,
2013-04-01 07:37:00,54.5,53.9,29.85,SW,217,0.0,0.0,98,0.00,CLR,,0.02,WeatherDisplay:10.37,2013-04-01 11:37:00,
2013-04-01 07:42:00,54.5,53.9,29.85,SW,217,0.0,0.0,98,0.00,CLR,,0.02,WeatherDisplay:10.37,2013-04-01 11:42:00,
2013-04-01 07:47:00,54.5,53.9,29.85,SW,217,0.0,0.0,98,0.00,CLR,,0.02,WeatherDisplay:10.37,2013-04-01 11:47:00,
2013-04-01 07:52:00,54.6,54.0,29.85,SW,217,0.0,0.0,98,0.00,CLR,,0.02,WeatherDisplay:10.37,2013-04-01 11:52:00,
2013-04-01 07:57:00,54.8,54.2,29.85,ENE,67,0.0,0.0,98,0.00,CLR,,0.02,WeatherDisplay:10.37,2013-04-01 11:57:00,
2013-04-01 08:02:00,54.9,54.3,29.85,NE,53,1.1,0.0,98,0.00,CLR,,0.02,WeatherDisplay:10.37,2013-04-01 12:02:00,
2013-04-01 08:07:00,54.9,54.3,29.85,NE,53,0.0,0.0,98,0.00,CLR,,0.02,WeatherDisplay:10.37,2013-04-01 12:07:00,
2013-04-01 08:12:00,55.0,54.4,29.85,NE,53,0.0,0.0,98,0.00,CLR,,0.02,WeatherDisplay:10.37,2013-04-01 12:12:00,
2013-04-01 08:17:00,55.0,54.4,29.86,West,278,1.1,0.0,98,0.00,CLR,,0.02,WeatherDisplay:10.37,2013-04-01 12:17:00,
2013-04-01 08:22:00,55.1,54.5,29.86,WSW,253,1.1,1.1,98,0.00,CLR,,0.02,WeatherDisplay:10.37,2013-04-01 12:22:00,
2013-04-01 08:27:00,55.1,54.5,29.86,NE,40,0.0,0.0,98,0.00,CLR,,0.02,WeatherDisplay:10.37,2013-04-01 12:27:00,
2013-04-01 08:32:00,55.1,54.5,29.86,NE,37,0.0,0.0,98,0.00,CLR,,0.02,WeatherDisplay:10.37,2013-04-01 12:32:00,
2013-04-01 08:37:00,55.1,54.5,29.86,NNE,27,1.1,1.1,98,0.00,CLR,,0.02,WeatherDisplay:10.37,2013-04-01 12:37:00,
2013-04-01 08:42:00,55.1,54.5,29.86,NNE,15,1.1,0.0,98,0.00,CLR,,0.02,WeatherDisplay:10.37,2013-04-01 12:42:00,
2013-04-01 08:47:00,55.1,54.3,29.86,NW,315,0.0,0.0,97,0.00,CLR,,0.02,WeatherDisplay:10.37,2013-04-01 12:47:00,
2013-04-01 08:52:00,55.1,54.3,29.86,North,355,0.0,0.0,97,0.00,CLR,,0.02,WeatherDisplay:10.37,2013-04-01 12:52:00,
2013-04-01 08:57:00,55.1,54.3,29.86,North,360,0.0,0.0,97,0.00,CLR,,0.02,WeatherDisplay:10.37,2013-04-01 12:57:00,
2013-04-01 09:02:00,55.1,54.3,29.86,NW,314,2.3,2.3,97,0.00,CLR,,0.02,WeatherDisplay:10.37,2013-04-01 13:02:00,
2013-04-01 09:07:00,55.3,54.5,29.86,NNE,29,2.3,2.3,97,0.00,CLR,,0.02,WeatherDisplay:10.37,2013-04-01 13:07:00,
2013-04-01 09:12:00,55.3,54.2,29.86,NNW,345,0.0,0.0,96,0.00,CLR,,0.02,WeatherDisplay:10.37,2013-04-01 13:12:00,
2013-04-01 09:17:00,55.6,54.5,29.85,North,6,2.3,2.3,96,0.00,CLR,,0.02,WeatherDisplay:10.37,2013-04-01 13:17:00,
2013-04-01 09:22:00,55.9,54.2,29.85,NNE,27,1.0,1.0,94,0.00,CLR,,0.02,WeatherDisplay:10.37,2013-04-01 13:22:00,
2013-04-01 09:27:00,56.2,53.0,29.86,North,5,4.6,4.6,89,0.00,CLR,,0.02,WeatherDisplay:10.37,2013-04-01 13:27:00,
2013-04-01 09:32:00,56.4,51.6,29.86,NW,321,3.5,3.5,84,0.00,CLR,,0.02,WeatherDisplay:10.37,2013-04-01 13:32:00,
2013-04-01 09:37:00,56.5,51.7,29.86,NNW,342,2.3,0.0,84,0.00,CLR,,0.02,WeatherDisplay:10.37,2013-04-01 13:37:00,
2013-04-01 09:42:00,56.7,50.9,29.86,WNW,299,2.3,2.3,81,0.00,CLR,,0.02,WeatherDisplay:10.37,2013-04-01 13:42:00,
2013-04-01 09:47:00,57.1,51.0,29.86,NNE,16,3.5,3.5,80,0.00,CLR,,0.02,WeatherDisplay:10.37,2013-04-01 13:47:00,
2013-04-01 09:52:00,57.5,50.3,29.86,NNE,23,2.3,2.3,77,0.00,CLR,,0.02,WeatherDisplay:10.37,2013-04-01 13:52:00,
2013-04-01 09:57:00,58.0,50.8,29.86,NNE,27,2.3,2.3,77,0.00,CLR,,0.02,WeatherDisplay:10.37,2013-04-01 13:57:00,
2013-04-01 10:02:00,58.6,51.4,29.86,South,191,2.3,2.3,77,0.00,CLR,,0.02,WeatherDisplay:10.37,2013-04-01 14:02:00,
2013-04-01 10:07:00,59.0,48.4,29.86,WNW,291,4.6,4.6,68,0.00,CLR,,0.02,WeatherDisplay:10.37,2013-04-01 14:07:00,
2013-04-01 10:12:00,59.3,47.5,29.86,NNE,18,3.5,3.5,65,0.00,CLR,,0.02,WeatherDisplay:10.37,2013-04-01 14:12:00,
2013-04-01 10:17:00,59.8,48.8,29.86,SW,236,3.0,3.0,67,0.00,CLR,,0.02,WeatherDisplay:10.37,2013-04-01 14:17:00,
2013-04-01 10:22:00,60.3,49.7,29.86,WSW,245,3.5,3.5,68,0.00,CLR,,0.02,WeatherDisplay:10.37,2013-04-01 14:22:00,
2013-04-01 10:27:00,61.4,49.5,29.86,NNW,330,2.0,2.0,65,0.00,CLR,,0.02,WeatherDisplay:10.37,2013-04-01 14:27:00,
2013-04-01 10:32:00,61.5,47.9,29.85,North,351,3.5,3.5,61,0.00,CLR,,0.02,WeatherDisplay:10.37,2013-04-01 14:32:00,
2013-04-01 10:37:00,61.4,48.3,29.85,West,263,6.0,6.0,62,0.00,CLR,,0.02,WeatherDisplay:10.37,2013-04-01 14:37:00,
2013-04-01 10:42:00,61.4,46.0,29.85,ENE,64,5.8,5.8,57,0.00,CLR,,0.02,WeatherDisplay:10.37,2013-04-01 14:42:00,
2013-04-01 10:47:00,61.6,47.6,29.85,WSW,248,4.6,4.6,60,0.00,CLR,,0.02,WeatherDisplay:10.37,2013-04-01 14:47:00,
2013-04-01 10:52:00,61.9,47.9,29.85,South,183,3.5,3.5,60,0.00,CLR,,0.02,WeatherDisplay:10.37,2013-04-01 14:52:00,
2013-04-01 10:57:00,62.3,45.4,29.85,West,264,3.0,3.0,54,0.00,CLR,,0.02,WeatherDisplay:10.37,2013-04-01 14:57:00,
2013-04-01 11:02:00,62.5,46.1,29.85,WNW,288,5.0,5.0,55,0.00,CLR,,0.02,WeatherDisplay:10.37,2013-04-01 15:02:00,
2013-04-01 11:07:00,62.4,44.5,29.85,WNW,298,6.0,6.0,52,0.00,CLR,,0.02,WeatherDisplay:10.37,2013-04-01 15:07:00,
2013-04-01 11:12:00,62.7,45.3,29.85,WSW,248,6.0,6.0,53,0.00,CLR,,0.02,WeatherDisplay:10.37,2013-04-01 15:12:00,
2013-04-01 11:17:00,62.7,45.8,29.85,West,271,6.0,6.0,54,0.00,CLR,,0.02,WeatherDisplay:10.37,2013-04-01 15:17:00,
2013-04-01 11:22:00,62.6,45.2,29.85,SSE,150,4.6,4.6,53,0.00,CLR,,0.02,WeatherDisplay:10.37,2013-04-01 15:22:00,
2013-04-01 11:27:00,63.2,46.3,29.85,SW,221,3.0,3.0,54,0.00,CLR,,0.02,WeatherDisplay:10.37,2013-04-01 15:27:00,
2013-04-01 11:32:00,63.6,47.1,29.85,SW,214,4.6,4.6,55,0.00,CLR,,0.02,WeatherDisplay:10.37,2013-04-01 15:32:00,
2013-04-01 11:37:00,63.6,46.6,29.85,WNW,299,3.5,3.5,54,0.00,CLR,,0.02,WeatherDisplay:10.37,2013-04-01 15:37:00,
2013-04-01 11:42:00,63.9,45.9,29.85,NNW,328,3.5,3.5,52,0.00,CLR,,0.02,WeatherDisplay:10.37,2013-04-01 15:42:00,
2013-04-01 11:47:00,64.1,46.1,29.85,West,264,2.0,2.0,52,0.00,CLR,,0.02,WeatherDisplay:10.37,2013-04-01 15:47:00,
2013-04-01 11:53:00,64.1,46.1,29.85,WNW,283,6.0,6.0,52,0.00,CLR,,0.02,WeatherDisplay:10.37,2013-04-01 15:53:00,
2013-04-01 11:58:00,63.9,45.9,29.85,WSW,238,4.6,4.6,52,0.00,CLR,,0.02,WeatherDisplay:10.37,2013-04-01 15:58:00,
2013-04-01 12:03:00,64.1,45.1,29.85,West,273,5.8,5.8,50,0.00,CLR,,0.02,WeatherDisplay:10.37,2013-04-01 16:03:00,
2013-04-01 12:08:00,64.6,46.1,29.85,WNW,302,3.5,3.5,51,0.00,CLR,,0.02,WeatherDisplay:10.37,2013-04-01 16:08:00,
2013-04-01 12:13:00,64.6,46.1,29.84,West,260,6.0,6.0,51,0.00,CLR,,0.02,WeatherDisplay:10.37,2013-04-01 16:13:00,
2013-04-01 12:18:00,65.1,46.5,29.84,WSW,249,2.3,2.3,51,0.00,CLR,,0.02,WeatherDisplay:10.37,2013-04-01 16:18:00,
2013-04-01 12:23:00,65.5,44.7,29.84,WSW,242,6.9,6.9,47,0.00,CLR,,0.02,WeatherDisplay:10.37,2013-04-01 16:23:00,
2013-04-01 12:28:00,65.5,45.3,29.84,SW,224,5.0,5.0,48,0.00,CLR,,0.02,WeatherDisplay:10.37,2013-04-01 16:28:00,
2013-04-01 12:33:00,65.8,45.6,29.84,SSW,194,1.1,1.1,48,0.00,CLR,,0.02,WeatherDisplay:10.37,2013-04-01 16:33:00,
2013-04-01 12:38:00,66.7,46.9,29.84,ESE,117,4.0,4.0,49,0.00,CLR,,0.02,WeatherDisplay:10.37,2013-04-01 16:38:00,
2013-04-01 12:43:00,67.3,45.8,29.84,NW,304,5.8,5.8,46,0.00,CLR,,0.02,WeatherDisplay:10.37,2013-04-01 16:43:00,
2013-04-01 12:48:00,66.7,45.3,29.84,SSW,200,3.5,3.5,46,0.00,CLR,,0.02,WeatherDisplay:10.37,2013-04-01 16:48:00,
2013-04-01 12:53:00,67.3,45.2,29.83,WNW,295,3.5,3.5,45,0.00,CLR,,0.02,WeatherDisplay:10.37,2013-04-01 16:53:00,
2013-04-01 12:58:00,67.0,43.8,29.83,West,273,10.4,10.4,43,0.00,CLR,,0.02,WeatherDisplay:10.37,2013-04-01 16:58:00,
2013-04-01 13:03:00,67.3,45.8,29.83,ESE,123,2.3,2.3,46,0.00,CLR,,0.02,WeatherDisplay:10.37,2013-04-01 17:03:00,
2013-04-01 13:08:00,67.5,43.6,29.83,SW,232,5.8,5.8,42,0.00,CLR,,0.02,WeatherDisplay:10.37,2013-04-01 17:08:00,
2013-04-01 13:13:00,68.0,45.9,29.83,WNW,298,3.5,3.5,45,0.00,CLR,,0.02,WeatherDisplay:10.37,2013-04-01 17:13:00,
2013-04-01 13:18:00,68.5,43.9,29.83,WSW,245,6.9,6.9,41,0.00,CLR,,0.02,WeatherDisplay:10.37,2013-04-01 17:18:00,
2013-04-01 13:23:00,68.7,44.0,29.83,SSW,210,9.2,9.2,41,0.00,CLR,,0.02,WeatherDisplay:10.37,2013-04-01 17:23:00,
2013-04-01 13:28:00,69.2,44.5,29.82,ESE,115,3.5,3.5,41,0.00,CLR,,0.02,WeatherDisplay:10.37,2013-04-01 17:28:00,
2013-04-01 13:33:00,69.3,45.2,29.82,SW,232,11.5,11.5,42,0.00,CLR,,0.02,WeatherDisplay:10.37,2013-04-01 17:33:00,
2013-04-01 13:38:00,68.7,44.7,29.82,SSW,210,5.8,5.8,42,0.00,CLR,,0.02,WeatherDisplay:10.37,2013-04-01 17:38:00,
2013-04-01 13:43:00,68.9,44.9,29.82,West,262,4.6,4.6,42,0.00,CLR,,0.02,WeatherDisplay:10.37,2013-04-01 17:43:00,
2013-04-01 13:48:00,69.0,44.3,29.82,West,271,9.2,9.2,41,0.00,CLR,,0.02,WeatherDisplay:10.37,2013-04-01 17:48:00,
2013-04-01 13:53:00,69.0,44.3,29.81,SW,215,4.6,4.6,41,0.00,CLR,,0.02,WeatherDisplay:10.37,2013-04-01 17:53:00,
2013-04-01 13:58:00,69.4,44.0,29.82,WNW,295,11.5,11.5,40,0.00,CLR,,0.02,WeatherDisplay:10.37,2013-04-01 17:58:00,
2013-04-01 14:03:00,69.6,44.8,29.81,NE,47,3.5,3.5,41,0.00,CLR,,0.02,WeatherDisplay:10.37,2013-04-01 18:03:00,
2013-04-01 14:08:00,70.0,44.6,29.81,NW,311,4.6,4.6,40,0.00,CLR,,0.02,WeatherDisplay:10.37,2013-04-01 18:08:00,
2013-04-01 14:13:00,70.0,45.2,29.81,East,89,3.5,3.5,41,0.00,CLR,,0.02,WeatherDisplay:10.37,2013-04-01 18:13:00,
2013-04-01 14:18:00,70.6,45.1,29.81,West,278,4.6,4.6,40,0.00,CLR,,0.02,WeatherDisplay:10.37,2013-04-01 18:18:00,
2013-04-01 14:23:00,70.1,43.3,29.80,WNW,294,11.5,11.5,38,0.00,CLR,,0.02,WeatherDisplay:10.37,2013-04-01 18:23:00,
2013-04-01 14:28:00,69.9,43.8,29.80,SW,228,11.5,11.5,39,0.00,CLR,,0.02,WeatherDisplay:10.37,2013-04-01 18:28:00,
2013-04-01 14:33:00,70.4,44.9,29.80,NNE,29,9.2,9.2,40,0.00,CLR,,0.02,WeatherDisplay:10.37,2013-04-01 18:33:00,
2013-04-01 14:38:00,70.8,42.5,29.80,SSW,208,8.1,8.1,36,0.00,CLR,,0.02,WeatherDisplay:10.37,2013-04-01 18:38:00,
2013-04-01 14:43:00,70.9,41.1,29.80,WSW,257,8.1,8.1,34,0.00,CLR,,0.02,WeatherDisplay:10.37,2013-04-01 18:43:00,
2013-04-01 14:48:00,70.7,41.7,29.80,North,360,9.2,9.2,35,0.00,CLR,,0.02,WeatherDisplay:10.37,2013-04-01 18:48:00,
2013-04-01 14:53:00,71.0,41.2,29.79,WSW,252,8.1,8.1,34,0.00,CLR,,0.02,WeatherDisplay:10.37,2013-04-01 18:53:00,
2013-04-01 14:58:00,71.1,40.5,29.79,NE,37,6.9,6.9,33,0.00,CLR,,0.02,WeatherDisplay:10.37,2013-04-01 18:58:00,
2013-04-01 15:03:00,71.3,40.7,29.79,WSW,249,8.1,8.1,33,0.00,CLR,,0.02,WeatherDisplay:10.37,2013-04-01 19:03:00,
2013-04-01 15:08:00,71.5,40.9,29.79,SSE,162,4.6,4.6,33,0.00,CLR,,0.02,WeatherDisplay:10.37,2013-04-01 19:08:00,
2013-04-01 15:13:00,70.9,39.6,29.79,SW,225,17.3,17.3,32,0.00,CLR,,0.02,WeatherDisplay:10.37,2013-04-01 19:13:00,
2013-04-01 15:18:00,70.5,40.8,29.79,West,264,5.8,5.8,34,0.00,CLR,,0.02,WeatherDisplay:10.37,2013-04-01 19:18:00,
2013-04-01 15:23:00,70.5,40.8,29.79,West,271,8.1,8.1,34,0.00,CLR,,0.02,WeatherDisplay:10.37,2013-04-01 19:23:00,
2013-04-01 15:28:00,70.6,39.3,29.79,WSW,249,15.0,15.0,32,0.00,CLR,,0.02,WeatherDisplay:10.37,2013-04-01 19:28:00,
2013-04-01 15:33:00,70.8,39.5,29.79,West,262,12.7,12.7,32,0.00,CLR,,0.02,WeatherDisplay:10.37,2013-04-01 19:33:00,
2013-04-01 15:38:00,70.8,41.0,29.79,SW,236,4.0,4.0,34,0.00,CLR,,0.02,WeatherDisplay:10.37,2013-04-01 19:38:00,
2013-04-01 15:43:00,71.3,40.7,29.79,WSW,245,10.4,10.4,33,0.00,CLR,,0.02,WeatherDisplay:10.37,2013-04-01 19:43:00,
2013-04-01 15:48:00,71.8,41.9,29.79,WNW,290,4.6,4.6,34,0.00,CLR,,0.02,WeatherDisplay:10.37,2013-04-01 19:48:00,
2013-04-01 15:53:00,71.6,40.2,29.79,West,259,10.4,10.4,32,0.00,CLR,,0.02,WeatherDisplay:10.37,2013-04-01 19:53:00,
2013-04-01 15:58:00,71.7,40.3,29.79,NNW,345,10.4,10.4,32,0.00,CLR,,0.02,WeatherDisplay:10.37,2013-04-01 19:58:00,
2013-04-01 16:03:00,71.1,39.7,29.78,WNW,292,9.2,9.2,32,0.00,CLR,,0.02,WeatherDisplay:10.37,2013-04-01 20:03:00,
2013-04-01 16:08:00,71.0,40.4,29.78,West,269,6.9,6.9,33,0.00,CLR,,0.02,WeatherDisplay:10.37,2013-04-01 20:08:00,
2013-04-01 16:13:00,71.6,41.0,29.79,WSW,243,12.7,12.7,33,0.00,CLR,,0.02,WeatherDisplay:10.37,2013-04-01 20:13:00,
2013-04-01 16:18:00,71.6,40.2,29.78,NNW,343,13.8,13.8,32,0.00,CLR,,0.02,WeatherDisplay:10.37,2013-04-01 20:18:00,
2013-04-01 16:23:00,71.3,39.9,29.78,SW,236,9.2,9.2,32,0.00,CLR,,0.02,WeatherDisplay:10.37,2013-04-01 20:23:00,
2013-04-01 16:28:00,71.6,41.0,29.78,West,276,3.5,3.5,33,0.00,CLR,,0.02,WeatherDisplay:10.37,2013-04-01 20:28:00,
2013-04-01 16:33:00,71.7,41.0,29.78,NE,34,4.6,4.6,33,0.00,CLR,,0.02,WeatherDisplay:10.37,2013-04-01 20:33:00,
2013-04-01 16:38:00,71.7,40.3,29.78,WSW,249,11.5,11.5,32,0.00,CLR,,0.02,WeatherDisplay:10.37,2013-04-01 20:38:00,
2013-04-01 16:43:00,71.7,41.0,29.79,West,260,9.2,9.2,33,0.00,CLR,,0.02,WeatherDisplay:10.37,2013-04-01 20:43:00,
2013-04-01 16:48:00,71.6,41.0,29.79,West,274,4.6,4.6,33,0.00,CLR,,0.02,WeatherDisplay:10.37,2013-04-01 20:48:00,
2013-04-01 16:53:00,71.7,40.3,29.78,SSW,212,9.0,9.0,32,0.00,CLR,,0.02,WeatherDisplay:10.37,2013-04-01 20:53:00,
2013-04-01 16:58:00,71.3,39.9,29.78,NNW,328,11.5,11.5,32,0.00,CLR,,0.02,WeatherDisplay:10.37,2013-04-01 20:58:00,
2013-04-01 17:03:00,71.4,40.8,29.78,WSW,250,6.0,6.0,33,0.00,CLR,,0.02,WeatherDisplay:10.37,2013-04-01 21:03:00,
2013-04-01 17:08:00,71.7,41.0,29.78,West,267,5.0,5.0,33,0.00,CLR,,0.02,WeatherDisplay:10.37,2013-04-01 21:08:00,
2013-04-01 17:13:00,71.5,40.9,29.78,North,9,3.5,3.5,33,0.00,CLR,,0.02,WeatherDisplay:10.37,2013-04-01 21:13:00,
2013-04-01 17:18:00,71.5,40.9,29.78,SW,221,3.5,3.5,33,0.00,CLR,,0.02,WeatherDisplay:10.37,2013-04-01 21:18:00,
2013-04-01 17:23:00,71.8,40.3,29.79,West,263,13.8,13.8,32,0.00,CLR,,0.02,WeatherDisplay:10.37,2013-04-01 21:23:00,
2013-04-01 17:28:00,71.7,40.3,29.79,WNW,294,5.0,5.0,32,0.00,CLR,,0.02,WeatherDisplay:10.37,2013-04-01 21:28:00,
2013-04-01 17:33:00,71.7,41.0,29.79,SSW,199,3.5,3.5,33,0.00,CLR,,0.02,WeatherDisplay:10.37,2013-04-01 21:33:00,
2013-04-01 17:38:00,71.6,40.2,29.79,WSW,242,9.2,9.2,32,0.00,CLR,,0.02,WeatherDisplay:10.37,2013-04-01 21:38:00,
2013-04-01 17:43:00,71.2,40.6,29.79,West,281,12.7,12.7,33,0.00,CLR,,0.02,WeatherDisplay:10.37,2013-04-01 21:43:00,
2013-04-01 17:48:00,71.1,40.5,29.79,NNE,19,3.5,3.5,33,0.00,CLR,,0.02,WeatherDisplay:10.37,2013-04-01 21:48:00,
2013-04-01 17:53:00,71.6,41.0,29.79,WSW,252,6.9,6.9,33,0.00,CLR,,0.02,WeatherDisplay:10.37,2013-04-01 21:53:00,
2013-04-01 17:58:00,71.7,40.3,29.79,WNW,283,7.0,7.0,32,0.00,CLR,,0.02,WeatherDisplay:10.37,2013-04-01 21:58:00,
2013-04-01 18:03:00,71.4,39.2,29.80,South,191,5.0,5.0,31,0.00,CLR,,0.02,WeatherDisplay:10.37,2013-04-01 22:03:00,
2013-04-01 18:08:00,71.2,39.8,29.79,WNW,301,8.1,8.1,32,0.00,CLR,,0.02,WeatherDisplay:10.37,2013-04-01 22:08:00,
2013-04-01 18:13:00,70.9,38.7,29.80,ENE,70,6.9,6.9,31,0.00,CLR,,0.02,WeatherDisplay:10.37,2013-04-01 22:13:00,
2013-04-01 18:18:00,70.6,39.3,29.80,NW,319,5.0,5.0,32,0.00,CLR,,0.02,WeatherDisplay:10.37,2013-04-01 22:18:00,
2013-04-01 18:23:00,70.1,38.9,29.80,NW,325,6.9,6.9,32,0.00,CLR,,0.02,WeatherDisplay:10.37,2013-04-01 22:23:00,
2013-04-01 18:28:00,69.6,39.2,29.81,ENE,63,13.0,13.0,33,0.00,CLR,,0.02,WeatherDisplay:10.37,2013-04-01 22:28:00,
2013-04-01 18:33:00,69.0,38.7,29.81,ENE,57,3.5,3.5,33,0.00,CLR,,0.02,WeatherDisplay:10.37,2013-04-01 22:33:00,
2013-04-01 18:38:00,68.5,38.2,29.81,SW,215,10.4,10.4,33,0.00,CLR,,0.02,WeatherDisplay:10.37,2013-04-01 22:38:00,
2013-04-01 18:43:00,68.3,38.8,29.81,NNE,22,4.6,4.6,34,0.00,CLR,,0.02,WeatherDisplay:10.37,2013-04-01 22:43:00,
2013-04-01 18:48:00,68.1,38.7,29.81,NE,56,8.0,8.0,34,0.00,CLR,,0.02,WeatherDisplay:10.37,2013-04-01 22:48:00,
2013-04-01 18:53:00,67.7,39.0,29.81,East,90,3.5,3.5,35,0.00,CLR,,0.02,WeatherDisplay:10.37,2013-04-01 22:53:00,
2013-04-01 18:58:00,67.3,39.4,29.82,North,351,4.6,4.6,36,0.00,CLR,,0.02,WeatherDisplay:10.37,2013-04-01 22:58:00,
2013-04-01 19:03:00,67.1,39.2,29.82,SSE,153,9.2,9.2,36,0.00,CLR,,0.02,WeatherDisplay:10.37,2013-04-01 23:03:00,
2013-04-01 19:08:00,66.8,39.7,29.82,WNW,298,3.5,3.5,37,0.00,CLR,,0.02,WeatherDisplay:10.37,2013-04-01 23:08:00,
2013-04-01 19:13:00,66.6,39.5,29.82,SE,138,2.3,2.3,37,0.00,CLR,,0.02,WeatherDisplay:10.37,2013-04-01 23:13:00,
2013-04-01 19:18:00,66.3,39.9,29.82,NE,34,2.3,2.3,38,0.00,CLR,,0.02,WeatherDisplay:10.37,2013-04-01 23:18:00,
2013-04-01 19:23:00,66.0,39.7,29.82,NNW,331,2.3,2.3,38,0.00,CLR,,0.02,WeatherDisplay:10.37,2013-04-01 23:23:00,
2013-04-01 19:28:00,65.8,40.1,29.82,NW,311,5.8,5.8,39,0.00,CLR,,0.02,WeatherDisplay:10.37,2013-04-01 23:28:00,
2013-04-01 19:33:00,65.4,39.8,29.83,SSW,210,1.1,1.1,39,0.00,CLR,,0.02,WeatherDisplay:10.37,2013-04-01 23:33:00,
2013-04-01 19:38:00,65.2,40.3,29.83,WSW,240,3.5,0.0,40,0.00,CLR,,0.02,WeatherDisplay:10.37,2013-04-01 23:38:00,
2013-04-01 19:43:00,64.9,40.6,29.83,WSW,245,3.5,3.5,41,0.00,CLR,,0.02,WeatherDisplay:10.37,2013-04-01 23:43:00,
2013-04-01 19:48:00,64.8,39.9,29.83,ENE,74,3.5,3.5,40,0.00,CLR,,0.02,WeatherDisplay:10.37,2013-04-01 23:48:00,
2013-04-01 19:53:00,64.6,39.7,29.83,NE,53,2.3,0.0,40,0.00,CLR,,0.02,WeatherDisplay:10.37,2013-04-01 23:53:00,
2013-04-01 19:58:00,64.3,40.1,29.83,SSW,196,3.5,3.5,41,0.00,CLR,,0.02,WeatherDisplay:10.37,2013-04-01 23:58:00,
2013-04-01 20:03:00,64.1,40.5,29.83,NE,38,3.5,3.5,42,0.00,CLR,,0.02,WeatherDisplay:10.37,2013-04-02 00:03:00,
2013-04-01 20:08:00,63.8,40.3,29.83,West,260,0.0,0.0,42,0.00,CLR,,0.02,WeatherDisplay:10.37,2013-04-02 00:08:00,
2013-04-01 20:13:00,63.6,40.1,29.84,NNW,343,1.1,1.1,42,0.00,CLR,,0.02,WeatherDisplay:10.37,2013-04-02 00:13:00,
2013-04-01 20:18:00,63.5,40.0,29.84,West,278,1.1,1.1,42,0.00,CLR,,0.02,WeatherDisplay:10.37,2013-04-02 00:18:00,
2013-04-01 20:23:00,63.2,40.3,29.84,ENE,67,0.0,0.0,43,0.00,CLR,,0.02,WeatherDisplay:10.37,2013-04-02 00:23:00,
2013-04-01 20:28:00,62.8,41.1,29.84,NW,308,0.0,0.0,45,0.00,CLR,,0.02,WeatherDisplay:10.37,2013-04-02 00:28:00,
2013-04-01 20:33:00,62.4,40.8,29.84,WNW,284,1.1,1.1,45,0.00,CLR,,0.02,WeatherDisplay:10.37,2013-04-02 00:33:00,
2013-04-01 20:38:00,62.0,40.4,29.84,NW,304,1.1,0.0,45,0.00,CLR,,0.02,WeatherDisplay:10.37,2013-04-02 00:38:00,
2013-04-01 20:43:00,61.6,40.6,29.85,North,352,0.0,0.0,46,0.00,CLR,,0.02,WeatherDisplay:10.37,2013-04-02 00:43:00,
2013-04-01 20:48:00,61.4,41.0,29.85,NNE,31,2.3,0.0,47,0.00,CLR,,0.02,WeatherDisplay:10.37,2013-04-02 00:48:00,
2013-04-01 20:53:00,61.2,40.8,29.85,NNE,32,1.1,0.0,47,0.00,CLR,,0.02,WeatherDisplay:10.37,2013-04-02 00:53:00,
2013-04-01 20:58:00,60.9,41.1,29.85,North,11,1.1,1.1,48,0.00,CLR,,0.02,WeatherDisplay:10.37,2013-04-02 00:58:00,
2013-04-01 21:03:00,60.6,41.3,29.85,North,11,1.1,0.0,49,0.00,CLR,,0.02,WeatherDisplay:10.37,2013-04-02 01:03:00,
2013-04-01 21:08:00,60.5,41.2,29.86,North,4,1.1,1.1,49,0.00,CLR,,0.02,WeatherDisplay:10.37,2013-04-02 01:08:00,
2013-04-01 21:13:00,60.6,41.3,29.86,NNW,339,2.3,2.3,49,0.00,CLR,,0.02,WeatherDisplay:10.37,2013-04-02 01:13:00,
2013-04-01 21:18:00,60.5,41.8,29.86,WSW,252,0.0,0.0,50,0.00,CLR,,0.02,WeatherDisplay:10.37,2013-04-02 01:18:00,
2013-04-01 21:23:00,60.3,41.6,29.86,WNW,287,1.1,1.1,50,0.00,CLR,,0.02,WeatherDisplay:10.37,2013-04-02 01:23:00,
2013-04-01 21:28:00,60.1,41.9,29.87,North,1,1.1,1.1,51,0.00,CLR,,0.02,WeatherDisplay:10.37,2013-04-02 01:28:00,
2013-04-01 21:33:00,60.0,41.8,29.87,North,8,1.1,0.0,51,0.00,CLR,,0.02,WeatherDisplay:10.37,2013-04-02 01:33:00,
2013-04-01 21:38:00,59.6,41.9,29.87,North,8,0.0,0.0,52,0.00,CLR,,0.02,WeatherDisplay:10.37,2013-04-02 01:38:00,
2013-04-01 21:43:00,59.1,41.5,29.87,North,8,0.0,0.0,52,0.00,CLR,,0.02,WeatherDisplay:10.37,2013-04-02 01:43:00,
2013-04-01 21:48:00,58.6,42.5,29.87,North,8,0.0,0.0,55,0.00,CLR,,0.02,WeatherDisplay:10.37,2013-04-02 01:48:00,
2013-04-01 21:53:00,58.3,41.7,29.88,NNE,14,0.0,0.0,54,0.00,CLR,,0.02,WeatherDisplay:10.37,2013-04-02 01:53:00,
2013-04-01 21:58:00,58.2,41.6,29.88,NNE,15,1.1,0.0,54,0.00,CLR,,0.02,WeatherDisplay:10.37,2013-04-02 01:58:00,
2013-04-01 22:03:00,58.3,41.7,29.88,NNW,327,0.0,0.1,54,0.00,CLR,,0.02,WeatherDisplay:10.37,2013-04-02 02:03:00,
2013-04-01 22:08:00,58.2,42.1,29.88,North,6,0.0,0.0,55,0.00,CLR,,0.02,WeatherDisplay:10.37,2013-04-02 02:08:00,
2013-04-01 22:13:00,58.0,41.4,29.89,North,6,0.0,0.0,54,0.00,CLR,,0.02,WeatherDisplay:10.37,2013-04-02 02:13:00,
2013-04-01 22:18:00,57.9,41.3,29.89,West,265,1.1,1.1,54,0.00,CLR,,0.02,WeatherDisplay:10.37,2013-04-02 02:18:00,
2013-04-01 22:23:00,57.9,40.9,29.89,NNE,32,2.3,2.3,53,0.00,CLR,,0.02,WeatherDisplay:10.37,2013-04-02 02:23:00,
2013-04-01 22:28:00,58.1,41.0,29.89,North,349,3.5,3.5,53,0.00,CLR,,0.02,WeatherDisplay:10.37,2013-04-02 02:28:00,
2013-04-01 22:33:00,58.1,40.6,29.89,NNE,29,2.3,2.3,52,0.00,CLR,,0.02,WeatherDisplay:10.37,2013-04-02 02:33:00,
2013-04-01 22:38:00,58.0,40.5,29.89,North,355,1.1,0.0,52,0.00,CLR,,0.02,WeatherDisplay:10.37,2013-04-02 02:38:00,
2013-04-01 22:43:00,57.8,40.3,29.89,North,4,1.1,1.1,52,0.00,CLR,,0.02,WeatherDisplay:10.37,2013-04-02 02:43:00,
2013-04-01 22:49:00,57.5,40.5,29.89,WNW,299,0.0,0.0,53,0.00,CLR,,0.02,WeatherDisplay:10.37,2013-04-02 02:49:00,
2013-04-01 22:54:00,57.2,40.7,29.90,NNE,26,0.0,0.1,54,0.00,CLR,,0.02,WeatherDisplay:10.37,2013-04-02 02:54:00,
2013-04-01 22:59:00,56.9,40.4,29.90,North,355,0.0,0.0,54,0.00,CLR,,0.02,WeatherDisplay:10.37,2013-04-02 02:59:00,
2013-04-01 23:04:00,56.7,39.7,29.90,NNE,21,2.0,2.0,53,0.00,CLR,,0.02,WeatherDisplay:10.37,2013-04-02 03:04:00,
2013-04-01 23:09:00,57.0,40.0,29.90,NNW,342,0.0,0.0,53,0.00,CLR,,0.02,WeatherDisplay:10.37,2013-04-02 03:09:00,
2013-04-01 23:14:00,56.9,39.4,29.91,North,354,4.6,4.6,52,0.00,CLR,,0.02,WeatherDisplay:10.37,2013-04-02 03:14:00,
2013-04-01 23:19:00,56.8,38.9,29.91,NNE,33,8.1,8.1,51,0.00,CLR,,0.02,WeatherDisplay:10.37,2013-04-02 03:19:00,
2013-04-01 23:24:00,56.5,38.6,29.91,NW,308,4.6,4.6,51,0.00,CLR,,0.02,WeatherDisplay:10.37,2013-04-02 03:24:00,
2013-04-01 23:29:00,56.0,38.1,29.92,North,358,6.9,6.9,51,0.00,CLR,,0.02,WeatherDisplay:10.37,2013-04-02 03:29:00,
2013-04-01 23:34:00,55.3,37.5,29.92,WNW,291,11.5,11.5,51,0.00,CLR,,0.02,WeatherDisplay:10.37,2013-04-02 03:34:00,
2013-04-01 23:39:00,54.2,36.5,29.93,ENE,67,10.4,10.4,51,0.00,CLR,,0.02,WeatherDisplay:10.37,2013-04-02 03:39:00,
2013-04-01 23:44:00,53.4,36.2,29.94,NE,54,4.6,4.6,52,0.00,CLR,,0.02,WeatherDisplay:10.37,2013-04-02 03:44:00,
2013-04-01 23:49:00,52.8,35.6,29.94,NNE,26,11.5,11.5,52,0.00,CLR,,0.02,WeatherDisplay:10.37,2013-04-02 03:49:00,
2013-04-01 23:54:00,52.3,35.7,29.94,North,356,6.9,6.9,53,0.00,CLR,,0.02,WeatherDisplay:10.37,2013-04-02 03:54:00,
2013-04-01 23:59:00,51.8,35.7,29.95,North,9,3.5,3.5,54,0.00,CLR,,0.02,WeatherDisplay:10.37,2013-04-02 03:59:00,